createdAt,value
2022-12-13T00:00:46.073Z,-4.53
2022-12-13T00:03:12.705Z,-4.52
2022-12-13T00:05:45.465Z,-4.52
2022-12-13T00:08:12.216Z,-4.50
2022-12-13T00:10:38.809Z,-4.54
2022-12-13T00:13:05.345Z,-4.60
2022-12-13T00:15:31.778Z,-4.63
2022-12-13T00:17:58.232Z,-4.67
2022-12-13T00:20:24.767Z,-4.70
2022-12-13T00:22:52.789Z,-4.65
2022-12-13T00:25:21.363Z,-4.68
2022-12-13T00:27:47.962Z,-4.71
2022-12-13T00:30:14.424Z,-4.77
2022-12-13T00:32:40.910Z,-4.83
2022-12-13T00:35:07.657Z,-4.82
2022-12-13T00:37:34.231Z,-4.82
2022-12-13T00:40:00.690Z,-4.80
2022-12-13T00:42:27.147Z,-5.01
2022-12-13T00:44:53.803Z,-5.06
2022-12-13T00:47:22.306Z,-4.95
2022-12-13T00:49:48.884Z,-5.09
2022-12-13T00:52:15.537Z,-5.12
2022-12-13T00:54:41.981Z,-5.04
2022-12-13T00:57:08.522Z,-5.14
2022-12-13T00:59:34.991Z,-5.13
2022-12-13T01:02:03.557Z,-5.28
2022-12-13T01:04:29.995Z,-5.24
2022-12-13T01:06:56.527Z,-5.22
2022-12-13T01:09:29.754Z,-5.26
2022-12-13T01:11:58.778Z,-5.18
2022-12-13T01:14:25.918Z,-5.15
2022-12-13T01:16:55.735Z,-5.19
2022-12-13T01:19:24.006Z,-5.27
2022-12-13T01:22:04.350Z,-5.33
2022-12-13T01:24:32.178Z,-5.25
2022-12-13T01:26:58.740Z,-5.32
2022-12-13T01:29:27.221Z,-5.37
2022-12-13T01:31:54.250Z,-5.37
2022-12-13T01:34:26.465Z,-5.38
2022-12-13T01:36:58.253Z,-5.46
2022-12-13T01:39:27.064Z,-5.54
2022-12-13T01:42:03.558Z,-5.59
2022-12-13T01:45:03.081Z,-5.65
2022-12-13T01:47:51.667Z,-5.92
2022-12-13T01:50:23.743Z,-5.77
2022-12-13T01:52:51.631Z,-5.60
2022-12-13T01:55:20.367Z,-5.64
2022-12-13T01:57:49.791Z,-5.67
2022-12-13T02:00:17.190Z,-5.72
2022-12-13T02:02:44.418Z,-5.66
2022-12-13T02:05:23.557Z,-5.63
2022-12-13T02:07:51.100Z,-5.70
2022-12-13T02:10:17.840Z,-5.70
2022-12-13T02:12:44.409Z,-5.72
2022-12-13T02:15:14.466Z,-5.76
2022-12-13T02:17:56.502Z,-5.72
2022-12-13T02:20:50.494Z,-5.74
2022-12-13T02:23:29.115Z,-5.92
2022-12-13T02:26:32.946Z,-5.77
2022-12-13T02:29:33.440Z,-5.80
2022-12-13T02:32:18.219Z,-5.83
2022-12-13T02:35:00.119Z,-5.82
2022-12-13T02:37:37.596Z,-6.04
2022-12-13T02:40:30.413Z,-5.87
2022-12-13T02:42:59.925Z,-5.89
2022-12-13T02:45:44.301Z,-5.86
2022-12-13T02:48:13.159Z,-5.84
2022-12-13T02:50:41.094Z,-5.82
2022-12-13T02:53:09.649Z,-5.86
2022-12-13T02:55:39.358Z,-6.06
2022-12-13T02:58:06.353Z,-5.95
2022-12-13T03:00:51.791Z,-5.94
2022-12-13T03:03:24.515Z,-6.02
2022-12-13T03:06:33.871Z,-5.99
2022-12-13T03:09:38.473Z,-5.98
2022-12-13T03:12:38.909Z,-5.98
2022-12-13T03:15:25.436Z,-6.02
2022-12-13T03:18:17.310Z,-6.06
2022-12-13T03:20:52.957Z,-6.07
2022-12-13T03:23:21.757Z,-6.16
2022-12-13T03:25:54.331Z,-6.15
2022-12-13T03:28:21.380Z,-6.19
2022-12-13T03:30:47.942Z,-6.16
2022-12-13T03:33:14.521Z,-6.21
2022-12-13T03:35:45.156Z,-6.33
2022-12-13T03:38:22.466Z,-6.30
2022-12-13T03:40:58.923Z,-6.30
2022-12-13T03:43:25.999Z,-6.37
2022-12-13T03:45:54.219Z,-6.36
2022-12-13T03:48:22.875Z,-6.41
2022-12-13T03:50:51.625Z,-6.32
2022-12-13T03:53:23.062Z,-6.28
2022-12-13T03:56:01.107Z,-6.29
2022-12-13T03:58:35.221Z,-6.29
2022-12-13T04:01:09.467Z,-6.18
2022-12-13T04:03:36.994Z,-6.18
2022-12-13T04:06:04.573Z,-6.08
2022-12-13T04:08:31.388Z,-6.04
2022-12-13T04:10:57.878Z,-6.10
2022-12-13T04:13:33.037Z,-6.08
2022-12-13T04:16:00.404Z,-5.90
2022-12-13T04:18:27.105Z,-5.97
2022-12-13T04:20:53.840Z,-5.93
2022-12-13T04:23:20.305Z,-5.89
2022-12-13T04:25:46.860Z,-5.83
2022-12-13T04:28:21.609Z,-5.85
2022-12-13T04:30:52.611Z,-6.16
2022-12-13T04:33:21.965Z,-5.96
2022-12-13T04:35:48.721Z,-5.96
2022-12-13T04:38:15.706Z,-6.04
2022-12-13T04:40:42.465Z,-6.18
2022-12-13T04:43:08.966Z,-6.05
2022-12-13T04:45:35.850Z,-5.97
2022-12-13T04:48:02.411Z,-6.01
2022-12-13T04:50:29.020Z,-6.09
2022-12-13T04:52:55.660Z,-6.16
2022-12-13T04:55:22.136Z,-6.07
2022-12-13T04:57:48.574Z,-5.96
2022-12-13T05:00:15.803Z,-5.92
2022-12-13T05:02:42.533Z,-5.95
2022-12-13T05:05:10.853Z,-6.03
2022-12-13T05:07:41.860Z,-6.05
2022-12-13T05:10:10.167Z,-6.11
2022-12-13T05:12:36.620Z,-6.17
2022-12-13T05:15:03.283Z,-6.23
2022-12-13T05:17:29.866Z,-6.39
2022-12-13T05:19:56.381Z,-6.18
2022-12-13T05:22:22.832Z,-6.20
2022-12-13T05:24:49.743Z,-6.13
2022-12-13T05:27:25.863Z,-6.14
2022-12-13T05:30:03.344Z,-6.17
2022-12-13T05:32:43.657Z,-6.20
2022-12-13T05:35:21.975Z,-6.21
2022-12-13T05:37:53.382Z,-6.21
2022-12-13T05:40:20.407Z,-6.17
2022-12-13T05:42:46.814Z,-6.35
2022-12-13T05:45:13.679Z,-6.10
2022-12-13T05:47:40.734Z,-6.16
2022-12-13T05:50:07.619Z,-6.15
2022-12-13T05:52:34.050Z,-6.16
2022-12-13T05:55:01.126Z,-6.13
2022-12-13T05:57:28.065Z,-6.13
2022-12-13T05:59:54.528Z,-6.13
2022-12-13T06:02:21.830Z,-6.14
2022-12-13T06:04:48.737Z,-6.17
2022-12-13T06:07:15.508Z,-6.19
2022-12-13T06:09:42.329Z,-6.16
2022-12-13T06:12:31.138Z,-6.20
2022-12-13T06:15:01.389Z,-6.45
2022-12-13T06:17:42.960Z,-6.21
2022-12-13T06:20:23.788Z,-6.18
2022-12-13T06:22:51.724Z,-6.17
2022-12-13T06:25:31.387Z,-6.33
2022-12-13T06:28:00.926Z,-6.22
2022-12-13T06:30:31.100Z,-6.32
2022-12-13T06:32:57.680Z,-6.38
2022-12-13T06:35:27.982Z,-6.33
2022-12-13T06:37:55.724Z,-6.47
2022-12-13T06:40:31.213Z,-6.26
2022-12-13T06:42:57.847Z,-6.24
2022-12-13T06:45:24.952Z,-6.19
2022-12-13T06:47:51.546Z,-6.32
2022-12-13T06:50:18.041Z,-6.42
2022-12-13T06:52:46.985Z,-6.23
2022-12-13T06:55:14.060Z,-6.20
2022-12-13T06:57:41.153Z,-6.13
2022-12-13T07:00:08.964Z,-6.11
2022-12-13T07:02:35.639Z,-6.16
2022-12-13T07:05:02.255Z,-6.12
2022-12-13T07:07:28.790Z,-6.13
2022-12-13T07:09:55.302Z,-6.22
2022-12-13T07:12:22.237Z,-6.20
2022-12-13T07:14:48.790Z,-6.21
2022-12-13T07:17:32.495Z,-6.35
2022-12-13T07:20:07.994Z,-6.21
2022-12-13T07:22:37.817Z,-6.13
2022-12-13T07:25:28.136Z,-6.29
2022-12-13T07:28:01.617Z,-6.18
2022-12-13T07:30:30.833Z,-6.16
2022-12-13T07:32:57.308Z,-6.20
2022-12-13T07:35:23.745Z,-6.13
2022-12-13T07:37:50.188Z,-6.13
2022-12-13T07:40:16.661Z,-6.23
2022-12-13T07:42:51.887Z,-6.10
2022-12-13T07:45:18.901Z,-6.06
2022-12-13T07:47:45.534Z,-6.20
2022-12-13T07:50:23.927Z,-6.03
2022-12-13T07:52:53.922Z,-6.09
2022-12-13T07:55:22.932Z,-6.11
2022-12-13T07:58:26.201Z,-6.11
2022-12-13T08:00:52.687Z,-6.12
2022-12-13T08:03:24.914Z,-6.11
2022-12-13T08:06:04.497Z,-6.03
2022-12-13T08:08:31.978Z,-5.86
2022-12-13T08:11:17.438Z,-5.86
2022-12-13T08:13:44.365Z,-6.00
2022-12-13T08:16:27.337Z,-5.97
2022-12-13T08:19:01.759Z,-5.78
2022-12-13T08:21:53.355Z,-5.79
2022-12-13T08:24:20.277Z,-5.83
2022-12-13T08:26:46.739Z,-5.74
2022-12-13T08:29:13.481Z,-5.81
2022-12-13T08:31:50.327Z,-5.74
2022-12-13T08:34:16.830Z,-5.68
2022-12-13T08:36:43.365Z,-5.57
2022-12-13T08:39:09.828Z,-5.57
2022-12-13T08:41:39.265Z,-5.47
2022-12-13T08:44:09.272Z,-5.47
2022-12-13T08:46:35.824Z,-5.60
2022-12-13T08:49:02.407Z,-5.38
2022-12-13T08:51:35.245Z,-5.28
2022-12-13T08:54:10.078Z,-5.24
2022-12-13T08:56:37.986Z,-5.36
2022-12-13T08:59:04.997Z,-5.10
2022-12-13T09:01:31.941Z,-5.12
2022-12-13T09:03:58.520Z,-5.16
2022-12-13T09:06:25.043Z,-4.96
2022-12-13T09:08:53.899Z,-4.89
2022-12-13T09:11:36.429Z,-4.84
2022-12-13T09:14:07.780Z,-4.84
2022-12-13T09:16:41.280Z,-4.86
2022-12-13T09:19:25.374Z,-4.81
2022-12-13T09:22:02.605Z,-4.83
2022-12-13T09:24:36.454Z,-4.73
2022-12-13T09:27:09.629Z,-4.69
2022-12-13T09:29:37.981Z,-4.71
2022-12-13T09:32:06.096Z,-4.49
2022-12-13T09:34:34.145Z,-4.42
2022-12-13T09:37:02.005Z,-4.36
2022-12-13T09:39:29.599Z,-4.39
2022-12-13T09:42:01.259Z,-4.31
2022-12-13T09:44:42.743Z,-4.35
2022-12-13T09:47:22.934Z,-4.52
2022-12-13T09:49:52.755Z,-4.35
2022-12-13T09:52:24.212Z,-4.32
2022-12-13T09:54:57.369Z,-4.26
2022-12-13T09:57:31.460Z,-4.13
2022-12-13T10:00:07.004Z,-4.01
2022-12-13T10:02:43.296Z,-4.09
2022-12-13T10:05:22.296Z,-3.76
2022-12-13T10:07:52.972Z,-3.69
2022-12-13T10:10:19.780Z,-3.62
2022-12-13T10:13:19.755Z,-3.69
2022-12-13T10:15:51.879Z,-3.79
2022-12-13T10:18:35.236Z,-3.58
2022-12-13T10:21:05.226Z,-3.47
2022-12-13T10:23:42.720Z,-3.40
2022-12-13T10:26:24.167Z,-3.25
2022-12-13T10:29:02.970Z,-3.23
2022-12-13T10:31:29.667Z,-3.21
2022-12-13T10:33:58.384Z,-3.22
2022-12-13T10:36:45.189Z,-3.13
2022-12-13T10:39:18.443Z,-3.10
2022-12-13T10:41:47.453Z,-3.02
2022-12-13T10:44:22.589Z,-2.91
2022-12-13T10:47:16.825Z,-2.89
2022-12-13T10:49:52.587Z,-3.01
2022-12-13T10:52:43.376Z,-2.91
2022-12-13T10:55:33.134Z,-2.93
2022-12-13T10:58:03.537Z,-2.92
2022-12-13T11:00:32.247Z,-2.98
2022-12-13T11:02:59.074Z,-3.14
2022-12-13T11:05:36.446Z,-2.87
2022-12-13T11:08:22.413Z,-2.86
2022-12-13T11:11:03.525Z,-2.80
2022-12-13T11:13:55.498Z,-2.75
2022-12-13T11:16:35.425Z,-2.67
2022-12-13T11:19:16.887Z,-2.58
2022-12-13T11:21:49.281Z,-2.66
2022-12-13T11:24:30.733Z,-2.52
2022-12-13T11:27:00.685Z,-2.55
2022-12-13T11:29:51.840Z,-2.48
2022-12-13T11:32:59.294Z,-2.45
2022-12-13T11:35:29.319Z,-2.47
2022-12-13T11:38:16.139Z,-2.49
2022-12-13T11:40:46.842Z,-2.47
2022-12-13T11:43:13.171Z,-2.41
2022-12-13T11:45:44.747Z,-2.40
2022-12-13T11:48:56.198Z,-2.41
2022-12-13T11:51:31.359Z,-2.39
2022-12-13T11:54:11.100Z,-2.42
2022-12-13T11:56:42.864Z,-2.45
2022-12-13T11:59:23.793Z,-2.39
2022-12-13T12:02:05.924Z,-2.39
2022-12-13T12:04:59.996Z,-2.40
2022-12-13T12:07:58.506Z,-2.49
2022-12-13T12:10:50.005Z,-2.44
2022-12-13T12:13:22.966Z,-2.29
2022-12-13T12:16:00.749Z,-2.20
2022-12-13T12:18:27.826Z,-2.23
2022-12-13T12:21:06.964Z,-2.26
2022-12-13T12:23:52.879Z,-2.29
2022-12-13T12:26:42.769Z,-2.31
2022-12-13T12:29:38.354Z,-2.34
2022-12-13T12:32:44.226Z,-2.27
2022-12-13T12:35:29.671Z,-2.41
2022-12-13T12:38:19.951Z,-2.18
2022-12-13T12:41:15.638Z,-2.16
2022-12-13T12:43:43.874Z,-2.18
2022-12-13T12:46:17.338Z,-2.20
2022-12-13T12:49:01.218Z,-2.12
2022-12-13T12:51:38.264Z,-2.22
2022-12-13T12:54:32.212Z,-2.18
2022-12-13T12:57:10.861Z,-2.19
2022-12-13T13:00:04.162Z,-2.16
2022-12-13T13:03:15.786Z,-2.13
2022-12-13T13:05:55.808Z,-2.14
2022-12-13T13:08:43.829Z,-2.13
2022-12-13T13:11:24.587Z,-2.10
2022-12-13T13:14:01.770Z,-2.06
2022-12-13T13:16:40.828Z,-2.01
2022-12-13T13:19:16.799Z,-2.04
2022-12-13T13:21:55.276Z,-1.88
2022-12-13T13:24:30.805Z,-1.87
2022-12-13T13:26:59.359Z,-1.79
2022-12-13T13:29:28.827Z,-1.72
2022-12-13T13:32:05.772Z,-1.69
2022-12-13T13:34:35.238Z,-1.70
2022-12-13T13:37:23.288Z,-1.70
2022-12-13T13:39:58.027Z,-1.65
2022-12-13T13:42:29.882Z,-1.85
2022-12-13T13:45:03.925Z,-1.89
2022-12-13T13:47:41.904Z,-1.75
2022-12-13T13:50:08.438Z,-1.82
2022-12-13T13:53:04.017Z,-1.87
2022-12-13T13:56:16.537Z,-1.91
2022-12-13T13:59:02.939Z,-1.87
2022-12-13T14:01:59.649Z,-1.92
2022-12-13T14:04:56.875Z,-1.95
2022-12-13T14:07:51.109Z,-2.13
2022-12-13T14:10:51.030Z,-1.92
2022-12-13T14:14:22.453Z,-2.07
2022-12-13T14:16:49.204Z,-1.96
2022-12-13T14:19:25.685Z,-1.94
2022-12-13T14:21:58.426Z,-2.00
2022-12-13T14:25:08.254Z,-2.06
2022-12-13T14:27:39.887Z,-2.06
2022-12-13T14:30:27.586Z,-2.08
2022-12-13T14:32:55.552Z,-2.24
2022-12-13T14:35:33.102Z,-2.07
2022-12-13T14:38:05.741Z,-2.12
2022-12-13T14:40:47.431Z,-2.08
2022-12-13T14:43:24.673Z,-2.04
2022-12-13T14:46:15.537Z,-2.04
2022-12-13T14:48:50.764Z,-2.09
2022-12-13T14:51:35.291Z,-2.17
2022-12-13T14:54:04.825Z,-2.25
2022-12-13T14:56:31.623Z,-2.36
2022-12-13T14:59:02.343Z,-2.32
2022-12-13T15:01:33.680Z,-2.37
2022-12-13T15:04:21.609Z,-2.39
2022-12-13T15:07:15.050Z,-2.43
2022-12-13T15:09:44.058Z,-2.51
2022-12-13T15:12:25.368Z,-2.48
2022-12-13T15:15:01.294Z,-2.48
2022-12-13T15:17:29.749Z,-2.53
2022-12-13T15:19:57.126Z,-2.64
2022-12-13T15:22:30.042Z,-2.52
2022-12-13T15:24:58.053Z,-2.71
2022-12-13T15:27:25.540Z,-2.53
2022-12-13T15:29:54.214Z,-2.55
2022-12-13T15:32:23.200Z,-2.55
2022-12-13T15:34:51.641Z,-2.56
2022-12-13T15:37:30.418Z,-2.68
2022-12-13T15:40:07.215Z,-2.50
2022-12-13T15:42:36.890Z,-2.50
2022-12-13T15:45:06.516Z,-2.49
2022-12-13T15:47:33.498Z,-2.53
2022-12-13T15:50:05.641Z,-2.56
2022-12-13T15:52:36.921Z,-2.51
2022-12-13T15:55:09.110Z,-2.49
2022-12-13T15:57:49.470Z,-2.56
2022-12-13T16:00:19.304Z,-2.59
2022-12-13T16:03:01.536Z,-2.63
2022-12-13T16:05:40.262Z,-2.77
2022-12-13T16:08:17.159Z,-2.66
2022-12-13T16:10:52.133Z,-2.72
2022-12-13T16:13:30.677Z,-2.67
2022-12-13T16:16:09.454Z,-2.69
2022-12-13T16:18:52.221Z,-2.79
2022-12-13T16:21:19.252Z,-2.80
2022-12-13T16:23:48.137Z,-2.74
2022-12-13T16:26:22.200Z,-2.90
2022-12-13T16:28:49.205Z,-2.69
2022-12-13T16:31:36.711Z,-2.79
2022-12-13T16:34:04.389Z,-2.82
2022-12-13T16:36:32.019Z,-2.84
2022-12-13T16:38:59.163Z,-2.84
2022-12-13T16:41:25.834Z,-2.88
2022-12-13T16:44:00.962Z,-2.90
2022-12-13T16:47:14.732Z,-2.92
2022-12-13T16:49:20.497Z,-3.01
2022-12-13T16:51:48.896Z,-3.08
2022-12-13T16:54:16.507Z,-3.03
2022-12-13T16:56:43.635Z,-3.08
2022-12-13T16:59:14.957Z,-2.99
2022-12-13T17:01:42.854Z,-3.01
2022-12-13T17:04:19.464Z,-3.07
2022-12-13T17:06:46.948Z,-3.11
2022-12-13T17:09:13.464Z,-3.11
2022-12-13T17:11:40.369Z,-3.14
2022-12-13T17:14:06.847Z,-3.35
2022-12-13T17:16:34.011Z,-3.14
2022-12-13T17:19:00.665Z,-3.22
2022-12-13T17:21:29.703Z,-3.39
2022-12-13T17:23:57.676Z,-3.24
2022-12-13T17:26:24.623Z,-3.28
2022-12-13T17:28:51.264Z,-3.30
2022-12-13T17:31:19.603Z,-3.26
2022-12-13T17:33:46.683Z,-3.45
2022-12-13T17:36:14.787Z,-3.30
2022-12-13T17:38:43.889Z,-3.46
2022-12-13T17:41:12.852Z,-3.35
2022-12-13T17:43:39.837Z,-3.34
2022-12-13T17:46:14.598Z,-3.31
2022-12-13T17:48:42.049Z,-3.31
2022-12-13T17:51:10.286Z,-3.27
2022-12-13T17:53:42.984Z,-3.33
2022-12-13T17:56:17.811Z,-3.29
2022-12-13T17:58:45.313Z,-3.19
2022-12-13T18:01:17.351Z,-3.17
2022-12-13T18:03:44.916Z,-3.27
2022-12-13T18:06:12.117Z,-3.24
2022-12-13T18:08:40.384Z,-3.29
2022-12-13T18:13:55.894Z,-3.28
2022-12-13T18:16:24.133Z,-3.17
2022-12-13T18:18:54.963Z,-3.27
2022-12-13T18:21:23.694Z,-3.20
2022-12-13T18:23:55.123Z,-3.22
2022-12-13T18:26:24.768Z,-3.32
2022-12-13T18:28:52.148Z,-3.32
2022-12-13T18:31:22.377Z,-3.50
2022-12-13T18:33:50.980Z,-3.37
2022-12-13T18:36:18.947Z,-3.36
2022-12-13T18:38:45.739Z,-3.37
2022-12-13T18:41:16.605Z,-3.39
2022-12-13T18:43:44.297Z,-3.38
2022-12-13T18:46:12.467Z,-3.41
2022-12-13T18:48:39.580Z,-3.40
2022-12-13T18:51:07.901Z,-3.42
2022-12-13T18:53:35.905Z,-3.48
2022-12-13T18:56:05.410Z,-3.48
2022-12-13T18:58:33.290Z,-3.64
2022-12-13T19:01:00.425Z,-3.41
2022-12-13T19:03:27.445Z,-3.63
2022-12-13T19:05:57.985Z,-3.44
2022-12-13T19:08:26.514Z,-3.57
2022-12-13T19:10:57.950Z,-3.43
2022-12-13T19:13:26.009Z,-3.44
2022-12-13T19:15:54.514Z,-3.56
2022-12-13T19:18:21.730Z,-3.49
2022-12-13T19:20:49.651Z,-3.49
2022-12-13T19:23:17.983Z,-3.50
2022-12-13T19:25:45.389Z,-3.48
2022-12-13T19:28:17.708Z,-3.48
2022-12-13T19:30:46.111Z,-3.48
2022-12-13T19:33:13.428Z,-3.53
2022-12-13T19:35:41.300Z,-3.73
2022-12-13T19:38:08.535Z,-3.69
2022-12-13T19:40:35.029Z,-3.52
2022-12-13T19:43:01.564Z,-3.56
2022-12-13T19:45:28.230Z,-3.60
2022-12-13T19:47:55.378Z,-3.61
2022-12-13T19:50:21.973Z,-3.64
2022-12-13T19:52:48.979Z,-3.61
2022-12-13T19:55:15.509Z,-3.65
2022-12-13T19:57:42.031Z,-3.67
2022-12-13T20:00:08.980Z,-3.63
2022-12-13T20:02:35.975Z,-3.78
2022-12-13T20:05:02.726Z,-3.60
2022-12-13T20:07:29.382Z,-3.75
2022-12-13T20:09:55.971Z,-3.59
2022-12-13T20:12:22.615Z,-3.61
2022-12-13T20:14:49.212Z,-3.62
2022-12-13T20:17:15.863Z,-3.60
2022-12-13T20:19:42.389Z,-3.59
2022-12-13T20:22:09.357Z,-3.62
2022-12-13T20:24:35.868Z,-3.65
2022-12-13T20:27:02.675Z,-3.73
2022-12-13T20:29:29.395Z,-3.64
2022-12-13T20:31:56.773Z,-3.61
2022-12-13T20:34:23.447Z,-3.59
2022-12-13T20:36:50.278Z,-3.68
2022-12-13T20:39:16.732Z,-3.65
2022-12-13T20:41:43.412Z,-3.70
2022-12-13T20:44:12.421Z,-3.68
2022-12-13T20:46:39.860Z,-3.67
2022-12-13T20:49:09.195Z,-3.69
2022-12-13T20:51:37.467Z,-3.69
2022-12-13T20:54:04.671Z,-3.68
2022-12-13T20:56:35.179Z,-3.63
2022-12-13T20:59:07.348Z,-3.72
2022-12-13T21:01:37.873Z,-3.30
2022-12-13T21:04:06.536Z,-3.30
2022-12-13T21:06:36.038Z,-3.45
2022-12-13T21:09:04.842Z,-3.46
2022-12-13T21:11:43.401Z,-3.53
2022-12-13T21:14:25.343Z,-3.67
2022-12-13T21:16:54.612Z,-3.61
2022-12-13T21:19:23.600Z,-3.67
2022-12-13T21:21:51.017Z,-3.66
2022-12-13T21:24:19.150Z,-3.64
2022-12-13T21:26:45.978Z,-3.63
2022-12-13T21:29:14.086Z,-3.60
2022-12-13T21:31:43.179Z,-3.56
2022-12-13T21:34:10.887Z,-3.55
2022-12-13T21:36:38.821Z,-3.69
2022-12-13T21:39:28.531Z,-3.66
2022-12-13T21:41:55.605Z,-3.44
2022-12-13T21:44:22.888Z,-3.42
2022-12-13T21:49:38.414Z,-3.39
2022-12-13T21:52:05.131Z,-3.36
2022-12-13T21:54:31.583Z,-3.37
2022-12-13T21:57:16.441Z,-3.38
2022-12-13T21:59:43.322Z,-3.39
2022-12-13T22:02:16.271Z,-3.37
2022-12-13T22:04:45.462Z,-3.35
2022-12-13T22:07:33.065Z,-3.42
2022-12-13T22:10:02.279Z,-3.46
2022-12-13T22:12:32.063Z,-3.74
2022-12-13T22:14:58.996Z,-3.56
2022-12-13T22:17:33.111Z,-3.66
2022-12-13T22:20:02.832Z,-3.52
2022-12-13T22:22:29.499Z,-3.48
2022-12-13T22:24:56.106Z,-3.56
2022-12-13T22:27:25.831Z,-3.70
2022-12-13T22:29:54.142Z,-3.57
2022-12-13T22:32:21.326Z,-3.55
2022-12-13T22:34:50.568Z,-3.76
2022-12-13T22:37:17.118Z,-3.63
2022-12-13T22:39:46.098Z,-3.57
2022-12-13T22:42:12.747Z,-3.60
2022-12-13T22:44:42.260Z,-3.62
2022-12-13T22:47:09.143Z,-3.86
2022-12-13T22:49:38.025Z,-3.73
2022-12-13T22:52:08.101Z,-3.70
2022-12-13T22:54:36.026Z,-3.91
2022-12-13T22:57:02.699Z,-3.70
2022-12-13T22:59:29.324Z,-3.67
2022-12-13T23:02:02.207Z,-3.70
2022-12-13T23:07:12.528Z,-3.69
2022-12-13T23:09:39.088Z,-3.67
2022-12-13T23:12:24.502Z,-3.68
2022-12-13T23:14:51.548Z,-3.63
2022-12-13T23:17:18.160Z,-3.66
2022-12-13T23:19:50.290Z,-3.79
2022-12-13T23:22:22.036Z,-3.65
2022-12-13T23:24:50.108Z,-3.71
2022-12-13T23:27:17.374Z,-3.62
2022-12-13T23:29:43.906Z,-3.64
2022-12-13T23:32:11.665Z,-3.62
2022-12-13T23:34:38.402Z,-3.72
2022-12-13T23:37:04.933Z,-3.64
2022-12-13T23:39:33.053Z,-3.61
2022-12-13T23:41:59.552Z,-3.76
2022-12-13T23:44:26.108Z,-3.68
2022-12-13T23:46:52.681Z,-3.62
2022-12-13T23:49:19.281Z,-3.77
2022-12-13T23:51:45.824Z,-3.63
2022-12-13T23:54:16.582Z,-3.66
2022-12-13T23:56:43.504Z,-3.68
2022-12-13T23:59:10.214Z,-3.75
